sensor_id;sensor_type;location;lat;lon;timestamp;P1;durP1;ratioP1;P2;durP2;ratioP2
59271;SDS011;45043;51.068;7.026;2022-12-18T00:00:59;15.17;;;10.60;;
59271;SDS011;45043;51.068;7.026;2022-12-18T00:04:01;14.67;;;10.50;;
59271;SDS011;45043;51.068;7.026;2022-12-18T00:07:03;13.00;;;10.13;;
59271;SDS011;45043;51.068;7.026;2022-12-18T00:10:03;13.63;;;10.57;;
59271;SDS011;45043;51.068;7.026;2022-12-18T00:13:04;15.10;;;10.13;;
59271;SDS011;45043;51.068;7.026;2022-12-18T00:16:06;14.60;;;10.20;;
59271;SDS011;45043;51.068;7.026;2022-12-18T00:19:08;14.53;;;10.60;;
59271;SDS011;45043;51.068;7.026;2022-12-18T00:22:10;14.00;;;10.43;;
59271;SDS011;45043;51.068;7.026;2022-12-18T00:25:10;14.60;;;9.80;;
59271;SDS011;45043;51.068;7.026;2022-12-18T00:28:10;13.20;;;9.97;;
59271;SDS011;45043;51.068;7.026;2022-12-18T00:31:12;15.67;;;11.20;;
59271;SDS011;45043;51.068;7.026;2022-12-18T00:34:15;15.47;;;10.17;;
59271;SDS011;45043;51.068;7.026;2022-12-18T00:37:15;14.73;;;9.90;;
59271;SDS011;45043;51.068;7.026;2022-12-18T00:40:15;13.03;;;10.50;;
59271;SDS011;45043;51.068;7.026;2022-12-18T00:43:16;14.43;;;10.07;;
59271;SDS011;45043;51.068;7.026;2022-12-18T00:46:16;14.97;;;10.63;;
59271;SDS011;45043;51.068;7.026;2022-12-18T00:49:17;14.47;;;10.07;;
59271;SDS011;45043;51.068;7.026;2022-12-18T00:52:18;13.63;;;10.37;;
59271;SDS011;45043;51.068;7.026;2022-12-18T00:55:19;14.10;;;10.30;;
59271;SDS011;45043;51.068;7.026;2022-12-18T00:58:20;15.43;;;10.73;;
59271;SDS011;45043;51.068;7.026;2022-12-18T01:01:21;15.23;;;10.90;;
59271;SDS011;45043;51.068;7.026;2022-12-18T01:04:21;16.23;;;10.63;;
59271;SDS011;45043;51.068;7.026;2022-12-18T01:07:22;13.83;;;10.30;;
59271;SDS011;45043;51.068;7.026;2022-12-18T01:10:22;15.70;;;10.80;;
59271;SDS011;45043;51.068;7.026;2022-12-18T01:13:23;15.93;;;10.63;;
59271;SDS011;45043;51.068;7.026;2022-12-18T01:16:24;14.23;;;10.50;;
59271;SDS011;45043;51.068;7.026;2022-12-18T01:19:24;15.13;;;10.40;;
59271;SDS011;45043;51.068;7.026;2022-12-18T01:22:25;15.07;;;10.50;;
59271;SDS011;45043;51.068;7.026;2022-12-18T01:25:25;16.17;;;10.53;;
59271;SDS011;45043;51.068;7.026;2022-12-18T01:28:25;13.20;;;9.90;;
59271;SDS011;45043;51.068;7.026;2022-12-18T01:31:27;13.73;;;10.23;;
59271;SDS011;45043;51.068;7.026;2022-12-18T01:34:29;13.53;;;10.30;;
59271;SDS011;45043;51.068;7.026;2022-12-18T01:37:29;14.73;;;10.00;;
59271;SDS011;45043;51.068;7.026;2022-12-18T01:40:30;14.40;;;10.10;;
59271;SDS011;45043;51.068;7.026;2022-12-18T01:43:43;13.70;;;10.13;;
59271;SDS011;45043;51.068;7.026;2022-12-18T01:46:46;14.37;;;10.73;;
59271;SDS011;45043;51.068;7.026;2022-12-18T01:49:47;15.37;;;11.10;;
59271;SDS011;45043;51.068;7.026;2022-12-18T01:52:58;13.60;;;9.33;;
59271;SDS011;45043;51.068;7.026;2022-12-18T01:56:20;14.37;;;10.33;;
59271;SDS011;45043;51.068;7.026;2022-12-18T01:59:22;14.83;;;10.50;;
59271;SDS011;45043;51.068;7.026;2022-12-18T02:02:23;15.90;;;10.43;;
59271;SDS011;45043;51.068;7.026;2022-12-18T02:12:19;14.20;;;10.07;;
59271;SDS011;45043;51.068;7.026;2022-12-18T02:15:24;13.73;;;9.87;;
59271;SDS011;45043;51.068;7.026;2022-12-18T02:18:33;13.43;;;9.60;;
59271;SDS011;45043;51.068;7.026;2022-12-18T02:28:02;13.07;;;9.80;;
59271;SDS011;45043;51.068;7.026;2022-12-18T02:31:07;13.03;;;10.40;;
59271;SDS011;45043;51.068;7.026;2022-12-18T02:34:11;12.57;;;9.33;;
59271;SDS011;45043;51.068;7.026;2022-12-18T02:37:13;11.37;;;9.13;;
59271;SDS011;45043;51.068;7.026;2022-12-18T02:40:17;12.57;;;9.20;;
59271;SDS011;45043;51.068;7.026;2022-12-18T02:43:19;13.10;;;8.90;;
59271;SDS011;45043;51.068;7.026;2022-12-18T02:46:24;10.73;;;8.20;;
59271;SDS011;45043;51.068;7.026;2022-12-18T02:49:44;13.17;;;9.00;;
59271;SDS011;45043;51.068;7.026;2022-12-18T02:53:11;12.77;;;9.33;;
59271;SDS011;45043;51.068;7.026;2022-12-18T02:56:21;10.00;;;8.10;;
59271;SDS011;45043;51.068;7.026;2022-12-18T02:59:30;13.57;;;8.47;;
59271;SDS011;45043;51.068;7.026;2022-12-18T03:02:41;11.13;;;9.23;;
59271;SDS011;45043;51.068;7.026;2022-12-18T03:09:02;10.50;;;8.23;;
59271;SDS011;45043;51.068;7.026;2022-12-18T03:12:10;11.00;;;8.83;;
59271;SDS011;45043;51.068;7.026;2022-12-18T03:15:24;10.83;;;7.70;;
59271;SDS011;45043;51.068;7.026;2022-12-18T03:18:38;10.27;;;8.17;;
59271;SDS011;45043;51.068;7.026;2022-12-18T03:22:16;11.27;;;8.47;;
59271;SDS011;45043;51.068;7.026;2022-12-18T03:25:22;11.00;;;8.70;;
59271;SDS011;45043;51.068;7.026;2022-12-18T03:28:28;11.13;;;7.80;;
59271;SDS011;45043;51.068;7.026;2022-12-18T03:31:37;9.10;;;8.13;;
59271;SDS011;45043;51.068;7.026;2022-12-18T03:34:41;9.63;;;7.43;;
59271;SDS011;45043;51.068;7.026;2022-12-18T03:37:47;10.47;;;8.53;;
59271;SDS011;45043;51.068;7.026;2022-12-18T03:51:05;9.93;;;7.73;;
59271;SDS011;45043;51.068;7.026;2022-12-18T03:54:28;11.60;;;7.57;;
59271;SDS011;45043;51.068;7.026;2022-12-18T03:57:39;8.90;;;7.70;;
59271;SDS011;45043;51.068;7.026;2022-12-18T04:00:42;11.33;;;7.80;;
59271;SDS011;45043;51.068;7.026;2022-12-18T04:03:44;9.83;;;8.00;;
59271;SDS011;45043;51.068;7.026;2022-12-18T04:06:48;10.57;;;8.10;;
59271;SDS011;45043;51.068;7.026;2022-12-18T04:09:53;16.37;;;7.80;;
59271;SDS011;45043;51.068;7.026;2022-12-18T04:12:57;9.77;;;7.53;;
59271;SDS011;45043;51.068;7.026;2022-12-18T04:15:59;10.80;;;8.03;;
59271;SDS011;45043;51.068;7.026;2022-12-18T04:18:59;9.33;;;7.73;;
59271;SDS011;45043;51.068;7.026;2022-12-18T04:22:03;9.43;;;7.70;;
59271;SDS011;45043;51.068;7.026;2022-12-18T04:25:10;9.17;;;7.43;;
59271;SDS011;45043;51.068;7.026;2022-12-18T04:28:15;9.83;;;7.67;;
59271;SDS011;45043;51.068;7.026;2022-12-18T04:31:16;9.97;;;7.60;;
59271;SDS011;45043;51.068;7.026;2022-12-18T04:34:16;8.87;;;7.20;;
59271;SDS011;45043;51.068;7.026;2022-12-18T04:37:23;10.07;;;8.00;;
59271;SDS011;45043;51.068;7.026;2022-12-18T04:40:24;9.07;;;7.10;;
59271;SDS011;45043;51.068;7.026;2022-12-18T04:43:26;9.60;;;6.50;;
59271;SDS011;45043;51.068;7.026;2022-12-18T04:46:26;9.47;;;7.07;;
59271;SDS011;45043;51.068;7.026;2022-12-18T04:49:26;10.10;;;7.20;;
59271;SDS011;45043;51.068;7.026;2022-12-18T04:52:27;9.40;;;7.23;;
59271;SDS011;45043;51.068;7.026;2022-12-18T04:55:28;9.13;;;7.10;;
59271;SDS011;45043;51.068;7.026;2022-12-18T04:58:28;8.07;;;7.13;;
59271;SDS011;45043;51.068;7.026;2022-12-18T05:01:29;8.80;;;6.93;;
59271;SDS011;45043;51.068;7.026;2022-12-18T05:04:29;9.80;;;7.27;;
59271;SDS011;45043;51.068;7.026;2022-12-18T05:07:29;8.70;;;6.60;;
59271;SDS011;45043;51.068;7.026;2022-12-18T05:10:30;9.87;;;7.73;;
59271;SDS011;45043;51.068;7.026;2022-12-18T05:13:31;9.13;;;7.67;;
59271;SDS011;45043;51.068;7.026;2022-12-18T05:16:32;8.13;;;7.07;;
59271;SDS011;45043;51.068;7.026;2022-12-18T05:19:32;11.77;;;7.47;;
59271;SDS011;45043;51.068;7.026;2022-12-18T05:22:33;11.57;;;7.57;;
59271;SDS011;45043;51.068;7.026;2022-12-18T05:25:33;10.50;;;7.47;;
59271;SDS011;45043;51.068;7.026;2022-12-18T05:28:34;9.13;;;7.13;;
59271;SDS011;45043;51.068;7.026;2022-12-18T05:31:35;10.13;;;7.30;;
59271;SDS011;45043;51.068;7.026;2022-12-18T05:34:36;10.50;;;8.10;;
59271;SDS011;45043;51.068;7.026;2022-12-18T05:37:36;9.10;;;7.27;;
59271;SDS011;45043;51.068;7.026;2022-12-18T05:40:36;9.40;;;7.97;;
59271;SDS011;45043;51.068;7.026;2022-12-18T05:43:38;10.43;;;7.53;;
59271;SDS011;45043;51.068;7.026;2022-12-18T05:46:40;9.73;;;7.47;;
59271;SDS011;45043;51.068;7.026;2022-12-18T05:49:40;12.23;;;8.37;;
59271;SDS011;45043;51.068;7.026;2022-12-18T05:52:41;11.57;;;7.60;;
59271;SDS011;45043;51.068;7.026;2022-12-18T05:55:42;9.63;;;8.03;;
59271;SDS011;45043;51.068;7.026;2022-12-18T05:58:43;10.53;;;7.93;;
59271;SDS011;45043;51.068;7.026;2022-12-18T06:01:44;10.83;;;8.10;;
59271;SDS011;45043;51.068;7.026;2022-12-18T06:04:45;13.37;;;7.97;;
59271;SDS011;45043;51.068;7.026;2022-12-18T06:07:45;11.20;;;8.80;;
59271;SDS011;45043;51.068;7.026;2022-12-18T06:10:49;10.27;;;8.03;;
59271;SDS011;45043;51.068;7.026;2022-12-18T06:13:52;10.60;;;8.27;;
59271;SDS011;45043;51.068;7.026;2022-12-18T06:16:54;12.77;;;9.23;;
59271;SDS011;45043;51.068;7.026;2022-12-18T06:19:54;10.10;;;8.17;;
59271;SDS011;45043;51.068;7.026;2022-12-18T06:22:55;12.57;;;9.13;;
59271;SDS011;45043;51.068;7.026;2022-12-18T06:25:55;11.33;;;8.80;;
59271;SDS011;45043;51.068;7.026;2022-12-18T06:28:56;11.87;;;8.60;;
59271;SDS011;45043;51.068;7.026;2022-12-18T06:31:56;11.37;;;8.57;;
59271;SDS011;45043;51.068;7.026;2022-12-18T06:34:57;11.73;;;8.90;;
59271;SDS011;45043;51.068;7.026;2022-12-18T06:37:57;12.27;;;8.70;;
59271;SDS011;45043;51.068;7.026;2022-12-18T06:40:57;13.20;;;9.33;;
59271;SDS011;45043;51.068;7.026;2022-12-18T06:43:58;11.13;;;8.27;;
59271;SDS011;45043;51.068;7.026;2022-12-18T06:46:58;14.30;;;8.90;;
59271;SDS011;45043;51.068;7.026;2022-12-18T06:49:59;12.97;;;8.83;;
59271;SDS011;45043;51.068;7.026;2022-12-18T06:52:59;14.80;;;9.33;;
59271;SDS011;45043;51.068;7.026;2022-12-18T06:56:03;15.47;;;9.13;;
59271;SDS011;45043;51.068;7.026;2022-12-18T06:59:06;16.73;;;9.50;;
59271;SDS011;45043;51.068;7.026;2022-12-18T07:02:06;12.73;;;8.83;;
59271;SDS011;45043;51.068;7.026;2022-12-18T07:05:10;14.00;;;9.37;;
59271;SDS011;45043;51.068;7.026;2022-12-18T07:08:10;13.73;;;9.87;;
59271;SDS011;45043;51.068;7.026;2022-12-18T07:11:11;12.03;;;8.47;;
59271;SDS011;45043;51.068;7.026;2022-12-18T07:14:12;11.53;;;8.83;;
59271;SDS011;45043;51.068;7.026;2022-12-18T07:17:12;11.73;;;9.30;;
59271;SDS011;45043;51.068;7.026;2022-12-18T07:20:13;11.47;;;8.63;;
59271;SDS011;45043;51.068;7.026;2022-12-18T07:23:13;13.33;;;9.40;;
59271;SDS011;45043;51.068;7.026;2022-12-18T07:26:14;14.63;;;10.27;;
59271;SDS011;45043;51.068;7.026;2022-12-18T07:29:17;14.03;;;9.97;;
59271;SDS011;45043;51.068;7.026;2022-12-18T07:32:17;14.30;;;9.73;;
59271;SDS011;45043;51.068;7.026;2022-12-18T07:35:17;11.33;;;9.33;;
59271;SDS011;45043;51.068;7.026;2022-12-18T07:38:18;12.90;;;10.33;;
59271;SDS011;45043;51.068;7.026;2022-12-18T07:41:19;13.67;;;10.13;;
59271;SDS011;45043;51.068;7.026;2022-12-18T07:44:19;11.80;;;9.10;;
59271;SDS011;45043;51.068;7.026;2022-12-18T07:47:20;11.93;;;9.40;;
59271;SDS011;45043;51.068;7.026;2022-12-18T07:50:20;12.07;;;9.83;;
59271;SDS011;45043;51.068;7.026;2022-12-18T07:53:20;12.87;;;9.33;;
59271;SDS011;45043;51.068;7.026;2022-12-18T07:56:21;12.80;;;9.53;;
59271;SDS011;45043;51.068;7.026;2022-12-18T07:59:21;12.70;;;9.43;;
59271;SDS011;45043;51.068;7.026;2022-12-18T08:02:22;14.27;;;10.90;;
59271;SDS011;45043;51.068;7.026;2022-12-18T08:05:23;13.43;;;10.70;;
59271;SDS011;45043;51.068;7.026;2022-12-18T08:08:23;13.07;;;10.63;;
59271;SDS011;45043;51.068;7.026;2022-12-18T08:11:25;13.23;;;10.17;;
59271;SDS011;45043;51.068;7.026;2022-12-18T08:14:26;14.10;;;10.57;;
59271;SDS011;45043;51.068;7.026;2022-12-18T08:17:26;14.17;;;10.57;;
59271;SDS011;45043;51.068;7.026;2022-12-18T08:20:27;14.13;;;11.23;;
59271;SDS011;45043;51.068;7.026;2022-12-18T08:23:27;13.80;;;10.60;;
59271;SDS011;45043;51.068;7.026;2022-12-18T08:26:28;14.27;;;10.13;;
59271;SDS011;45043;51.068;7.026;2022-12-18T08:29:30;12.70;;;10.37;;
59271;SDS011;45043;51.068;7.026;2022-12-18T08:32:30;14.20;;;10.27;;
59271;SDS011;45043;51.068;7.026;2022-12-18T08:35:34;13.83;;;10.93;;
59271;SDS011;45043;51.068;7.026;2022-12-18T08:38:36;14.17;;;10.10;;
59271;SDS011;45043;51.068;7.026;2022-12-18T08:41:37;14.00;;;10.90;;
59271;SDS011;45043;51.068;7.026;2022-12-18T08:44:37;13.17;;;10.13;;
59271;SDS011;45043;51.068;7.026;2022-12-18T08:47:37;16.70;;;11.17;;
59271;SDS011;45043;51.068;7.026;2022-12-18T08:50:38;17.57;;;11.93;;
59271;SDS011;45043;51.068;7.026;2022-12-18T08:53:38;13.97;;;10.30;;
59271;SDS011;45043;51.068;7.026;2022-12-18T08:56:39;14.80;;;10.83;;
59271;SDS011;45043;51.068;7.026;2022-12-18T08:59:39;15.20;;;11.30;;
59271;SDS011;45043;51.068;7.026;2022-12-18T09:02:39;15.47;;;12.10;;
59271;SDS011;45043;51.068;7.026;2022-12-18T09:05:40;15.83;;;12.10;;
59271;SDS011;45043;51.068;7.026;2022-12-18T09:08:41;15.87;;;12.07;;
59271;SDS011;45043;51.068;7.026;2022-12-18T09:11:42;14.43;;;11.30;;
59271;SDS011;45043;51.068;7.026;2022-12-18T09:14:42;17.80;;;11.83;;
59271;SDS011;45043;51.068;7.026;2022-12-18T09:17:42;13.03;;;11.13;;
59271;SDS011;45043;51.068;7.026;2022-12-18T09:20:43;17.10;;;11.50;;
59271;SDS011;45043;51.068;7.026;2022-12-18T09:23:48;17.13;;;13.73;;
59271;SDS011;45043;51.068;7.026;2022-12-18T09:26:52;16.33;;;12.53;;
59271;SDS011;45043;51.068;7.026;2022-12-18T09:29:54;14.33;;;11.27;;
59271;SDS011;45043;51.068;7.026;2022-12-18T09:32:54;14.03;;;10.80;;
59271;SDS011;45043;51.068;7.026;2022-12-18T09:35:55;16.83;;;11.13;;
59271;SDS011;45043;51.068;7.026;2022-12-18T09:38:55;13.10;;;10.43;;
59271;SDS011;45043;51.068;7.026;2022-12-18T09:41:57;13.37;;;10.60;;
59271;SDS011;45043;51.068;7.026;2022-12-18T09:44:58;13.00;;;10.47;;
59271;SDS011;45043;51.068;7.026;2022-12-18T09:48:02;15.23;;;10.17;;
59271;SDS011;45043;51.068;7.026;2022-12-18T09:51:50;16.33;;;10.73;;
59271;SDS011;45043;51.068;7.026;2022-12-18T09:54:33;12.43;;;9.83;;
59271;SDS011;45043;51.068;7.026;2022-12-18T09:57:47;15.27;;;9.57;;
59271;SDS011;45043;51.068;7.026;2022-12-18T10:00:52;13.90;;;10.33;;
59271;SDS011;45043;51.068;7.026;2022-12-18T10:03:53;13.97;;;9.77;;
59271;SDS011;45043;51.068;7.026;2022-12-18T10:07:02;12.27;;;9.40;;
59271;SDS011;45043;51.068;7.026;2022-12-18T10:10:14;11.57;;;9.27;;
59271;SDS011;45043;51.068;7.026;2022-12-18T10:13:31;14.70;;;9.77;;
59271;SDS011;45043;51.068;7.026;2022-12-18T10:16:45;10.77;;;9.40;;
59271;SDS011;45043;51.068;7.026;2022-12-18T10:23:25;13.53;;;9.97;;
59271;SDS011;45043;51.068;7.026;2022-12-18T10:26:32;13.73;;;10.07;;
59271;SDS011;45043;51.068;7.026;2022-12-18T10:29:33;13.83;;;9.77;;
59271;SDS011;45043;51.068;7.026;2022-12-18T10:32:33;15.07;;;10.77;;
59271;SDS011;45043;51.068;7.026;2022-12-18T10:35:33;13.50;;;9.80;;
59271;SDS011;45043;51.068;7.026;2022-12-18T10:38:35;14.83;;;10.00;;
59271;SDS011;45043;51.068;7.026;2022-12-18T10:41:35;14.00;;;9.27;;
59271;SDS011;45043;51.068;7.026;2022-12-18T10:44:36;12.73;;;9.57;;
59271;SDS011;45043;51.068;7.026;2022-12-18T10:47:36;13.37;;;10.83;;
59271;SDS011;45043;51.068;7.026;2022-12-18T10:50:43;15.17;;;10.07;;
59271;SDS011;45043;51.068;7.026;2022-12-18T10:53:52;13.90;;;9.80;;
59271;SDS011;45043;51.068;7.026;2022-12-18T10:57:13;13.90;;;10.40;;
59271;SDS011;45043;51.068;7.026;2022-12-18T11:00:29;12.93;;;10.37;;
59271;SDS011;45043;51.068;7.026;2022-12-18T11:03:32;12.03;;;10.07;;
59271;SDS011;45043;51.068;7.026;2022-12-18T11:06:36;12.50;;;9.73;;
59271;SDS011;45043;51.068;7.026;2022-12-18T11:10:03;17.23;;;10.40;;
59271;SDS011;45043;51.068;7.026;2022-12-18T11:13:12;19.87;;;10.07;;
59271;SDS011;45043;51.068;7.026;2022-12-18T11:16:19;13.60;;;9.87;;
59271;SDS011;45043;51.068;7.026;2022-12-18T11:22:37;15.03;;;10.90;;
59271;SDS011;45043;51.068;7.026;2022-12-18T11:25:38;14.83;;;10.53;;
59271;SDS011;45043;51.068;7.026;2022-12-18T11:31:41;13.00;;;10.67;;
59271;SDS011;45043;51.068;7.026;2022-12-18T11:34:46;18.00;;;11.07;;
59271;SDS011;45043;51.068;7.026;2022-12-18T11:37:53;14.63;;;10.87;;
59271;SDS011;45043;51.068;7.026;2022-12-18T11:44:52;15.10;;;10.70;;
59271;SDS011;45043;51.068;7.026;2022-12-18T11:47:59;14.73;;;11.03;;
59271;SDS011;45043;51.068;7.026;2022-12-18T11:51:04;13.70;;;10.67;;
59271;SDS011;45043;51.068;7.026;2022-12-18T11:54:14;17.00;;;12.43;;
59271;SDS011;45043;51.068;7.026;2022-12-18T12:00:36;16.37;;;11.40;;
59271;SDS011;45043;51.068;7.026;2022-12-18T12:13:53;15.73;;;12.40;;
59271;SDS011;45043;51.068;7.026;2022-12-18T12:17:52;15.67;;;12.00;;
59271;SDS011;45043;51.068;7.026;2022-12-18T12:24:22;17.03;;;13.53;;
59271;SDS011;45043;51.068;7.026;2022-12-18T12:27:38;17.00;;;12.73;;
59271;SDS011;45043;51.068;7.026;2022-12-18T12:30:57;18.07;;;12.93;;
59271;SDS011;45043;51.068;7.026;2022-12-18T12:34:26;18.17;;;14.03;;
59271;SDS011;45043;51.068;7.026;2022-12-18T12:37:40;18.07;;;14.37;;
59271;SDS011;45043;51.068;7.026;2022-12-18T12:40:56;19.73;;;14.07;;
59271;SDS011;45043;51.068;7.026;2022-12-18T12:44:01;17.83;;;13.97;;
59271;SDS011;45043;51.068;7.026;2022-12-18T12:47:09;20.27;;;14.03;;
59271;SDS011;45043;51.068;7.026;2022-12-18T12:50:16;15.90;;;12.43;;
59271;SDS011;45043;51.068;7.026;2022-12-18T12:53:25;22.50;;;14.90;;
59271;SDS011;45043;51.068;7.026;2022-12-18T12:56:36;23.33;;;13.63;;
59271;SDS011;45043;51.068;7.026;2022-12-18T13:06:23;22.43;;;15.03;;
59271;SDS011;45043;51.068;7.026;2022-12-18T13:09:33;22.47;;;14.47;;
59271;SDS011;45043;51.068;7.026;2022-12-18T13:12:55;21.40;;;15.47;;
59271;SDS011;45043;51.068;7.026;2022-12-18T13:16:05;24.13;;;15.73;;
59271;SDS011;45043;51.068;7.026;2022-12-18T13:19:18;20.30;;;14.47;;
59271;SDS011;45043;51.068;7.026;2022-12-18T13:22:22;20.00;;;14.87;;
59271;SDS011;45043;51.068;7.026;2022-12-18T13:25:29;21.47;;;15.17;;
59271;SDS011;45043;51.068;7.026;2022-12-18T13:34:40;22.03;;;16.17;;
59271;SDS011;45043;51.068;7.026;2022-12-18T13:37:43;24.10;;;17.53;;
59271;SDS011;45043;51.068;7.026;2022-12-18T13:40:55;22.33;;;16.03;;
59271;SDS011;45043;51.068;7.026;2022-12-18T13:44:10;21.67;;;16.10;;
59271;SDS011;45043;51.068;7.026;2022-12-18T13:50:37;23.40;;;16.63;;
59271;SDS011;45043;51.068;7.026;2022-12-18T13:53:42;22.10;;;16.00;;
59271;SDS011;45043;51.068;7.026;2022-12-18T13:56:47;21.63;;;15.60;;
59271;SDS011;45043;51.068;7.026;2022-12-18T13:59:48;24.63;;;16.10;;
59271;SDS011;45043;51.068;7.026;2022-12-18T14:02:49;26.40;;;16.67;;
59271;SDS011;45043;51.068;7.026;2022-12-18T14:05:54;26.13;;;16.90;;
59271;SDS011;45043;51.068;7.026;2022-12-18T14:08:58;24.23;;;17.23;;
59271;SDS011;45043;51.068;7.026;2022-12-18T14:11:58;22.50;;;16.50;;
59271;SDS011;45043;51.068;7.026;2022-12-18T14:15:33;23.30;;;16.60;;
59271;SDS011;45043;51.068;7.026;2022-12-18T14:18:51;24.20;;;16.83;;
59271;SDS011;45043;51.068;7.026;2022-12-18T14:21:55;22.93;;;16.53;;
59271;SDS011;45043;51.068;7.026;2022-12-18T14:25:16;27.37;;;18.50;;
59271;SDS011;45043;51.068;7.026;2022-12-18T14:28:17;25.90;;;17.97;;
59271;SDS011;45043;51.068;7.026;2022-12-18T14:31:28;23.93;;;18.10;;
59271;SDS011;45043;51.068;7.026;2022-12-18T14:34:30;25.37;;;18.47;;
59271;SDS011;45043;51.068;7.026;2022-12-18T14:37:30;25.03;;;17.93;;
59271;SDS011;45043;51.068;7.026;2022-12-18T14:40:31;26.10;;;18.30;;
59271;SDS011;45043;51.068;7.026;2022-12-18T14:43:32;25.90;;;17.80;;
59271;SDS011;45043;51.068;7.026;2022-12-18T14:46:35;24.53;;;17.30;;
59271;SDS011;45043;51.068;7.026;2022-12-18T14:49:38;23.87;;;17.30;;
59271;SDS011;45043;51.068;7.026;2022-12-18T14:52:42;23.90;;;17.93;;
59271;SDS011;45043;51.068;7.026;2022-12-18T14:55:45;23.17;;;17.30;;
59271;SDS011;45043;51.068;7.026;2022-12-18T14:58:58;32.67;;;19.43;;
59271;SDS011;45043;51.068;7.026;2022-12-18T15:05:26;27.53;;;18.97;;
59271;SDS011;45043;51.068;7.026;2022-12-18T15:08:34;24.33;;;17.77;;
59271;SDS011;45043;51.068;7.026;2022-12-18T15:14:40;27.27;;;18.50;;
59271;SDS011;45043;51.068;7.026;2022-12-18T15:17:41;26.87;;;19.27;;
59271;SDS011;45043;51.068;7.026;2022-12-18T15:20:43;27.97;;;20.30;;
59271;SDS011;45043;51.068;7.026;2022-12-18T15:26:44;27.10;;;17.80;;
59271;SDS011;45043;51.068;7.026;2022-12-18T15:29:58;29.20;;;18.73;;
59271;SDS011;45043;51.068;7.026;2022-12-18T15:36:27;26.87;;;17.83;;
59271;SDS011;45043;51.068;7.026;2022-12-18T15:39:29;27.80;;;20.60;;
59271;SDS011;45043;51.068;7.026;2022-12-18T15:42:29;26.03;;;18.77;;
59271;SDS011;45043;51.068;7.026;2022-12-18T15:45:49;25.80;;;18.77;;
59271;SDS011;45043;51.068;7.026;2022-12-18T15:48:50;27.93;;;18.93;;
59271;SDS011;45043;51.068;7.026;2022-12-18T15:51:53;24.63;;;18.47;;
59271;SDS011;45043;51.068;7.026;2022-12-18T15:54:56;29.40;;;19.20;;
59271;SDS011;45043;51.068;7.026;2022-12-18T15:58:15;28.87;;;19.70;;
59271;SDS011;45043;51.068;7.026;2022-12-18T16:01:18;29.57;;;21.03;;
59271;SDS011;45043;51.068;7.026;2022-12-18T16:04:21;29.07;;;19.40;;
59271;SDS011;45043;51.068;7.026;2022-12-18T16:07:22;30.87;;;20.23;;
59271;SDS011;45043;51.068;7.026;2022-12-18T16:10:23;30.80;;;19.97;;
59271;SDS011;45043;51.068;7.026;2022-12-18T16:13:25;31.17;;;20.73;;
59271;SDS011;45043;51.068;7.026;2022-12-18T16:16:25;28.53;;;19.67;;
59271;SDS011;45043;51.068;7.026;2022-12-18T16:19:26;31.00;;;22.00;;
59271;SDS011;45043;51.068;7.026;2022-12-18T16:22:28;31.63;;;22.10;;
59271;SDS011;45043;51.068;7.026;2022-12-18T16:25:31;30.40;;;21.27;;
59271;SDS011;45043;51.068;7.026;2022-12-18T16:28:35;31.50;;;21.53;;
59271;SDS011;45043;51.068;7.026;2022-12-18T16:31:36;32.10;;;22.23;;
59271;SDS011;45043;51.068;7.026;2022-12-18T16:34:37;31.67;;;21.37;;
59271;SDS011;45043;51.068;7.026;2022-12-18T16:37:38;32.00;;;22.03;;
59271;SDS011;45043;51.068;7.026;2022-12-18T16:40:40;31.93;;;22.50;;
59271;SDS011;45043;51.068;7.026;2022-12-18T16:44:02;33.57;;;22.87;;
59271;SDS011;45043;51.068;7.026;2022-12-18T16:47:03;31.77;;;21.50;;
59271;SDS011;45043;51.068;7.026;2022-12-18T16:50:04;33.17;;;23.10;;
59271;SDS011;45043;51.068;7.026;2022-12-18T16:53:05;35.50;;;23.93;;
59271;SDS011;45043;51.068;7.026;2022-12-18T16:56:08;33.63;;;23.10;;
59271;SDS011;45043;51.068;7.026;2022-12-18T16:59:09;32.33;;;22.37;;
59271;SDS011;45043;51.068;7.026;2022-12-18T17:02:20;32.97;;;21.73;;
59271;SDS011;45043;51.068;7.026;2022-12-18T17:05:23;34.47;;;23.53;;
59271;SDS011;45043;51.068;7.026;2022-12-18T17:08:23;31.03;;;22.00;;
59271;SDS011;45043;51.068;7.026;2022-12-18T17:11:24;36.67;;;22.97;;
59271;SDS011;45043;51.068;7.026;2022-12-18T17:14:26;32.97;;;21.43;;
59271;SDS011;45043;51.068;7.026;2022-12-18T17:17:27;34.30;;;23.90;;
59271;SDS011;45043;51.068;7.026;2022-12-18T17:20:27;34.13;;;22.77;;
59271;SDS011;45043;51.068;7.026;2022-12-18T17:23:29;34.57;;;23.03;;
59271;SDS011;45043;51.068;7.026;2022-12-18T17:26:30;44.60;;;22.47;;
59271;SDS011;45043;51.068;7.026;2022-12-18T17:29:30;34.60;;;23.97;;
59271;SDS011;45043;51.068;7.026;2022-12-18T17:32:31;38.57;;;23.47;;
59271;SDS011;45043;51.068;7.026;2022-12-18T17:35:31;36.27;;;23.83;;
59271;SDS011;45043;51.068;7.026;2022-12-18T17:38:32;37.27;;;23.27;;
59271;SDS011;45043;51.068;7.026;2022-12-18T17:41:33;37.13;;;23.43;;
59271;SDS011;45043;51.068;7.026;2022-12-18T17:44:34;35.30;;;22.67;;
59271;SDS011;45043;51.068;7.026;2022-12-18T17:47:35;37.10;;;24.67;;
59271;SDS011;45043;51.068;7.026;2022-12-18T17:50:36;39.20;;;25.07;;
59271;SDS011;45043;51.068;7.026;2022-12-18T17:53:37;36.47;;;23.80;;
59271;SDS011;45043;51.068;7.026;2022-12-18T17:56:40;38.97;;;24.40;;
59271;SDS011;45043;51.068;7.026;2022-12-18T17:59:40;35.83;;;22.40;;
59271;SDS011;45043;51.068;7.026;2022-12-18T18:02:41;37.70;;;24.13;;
59271;SDS011;45043;51.068;7.026;2022-12-18T18:05:41;38.07;;;25.30;;
59271;SDS011;45043;51.068;7.026;2022-12-18T18:08:42;41.87;;;26.27;;
59271;SDS011;45043;51.068;7.026;2022-12-18T18:11:43;39.20;;;24.83;;
59271;SDS011;45043;51.068;7.026;2022-12-18T18:15:02;36.07;;;23.20;;
59271;SDS011;45043;51.068;7.026;2022-12-18T18:18:03;41.10;;;25.43;;
59271;SDS011;45043;51.068;7.026;2022-12-18T18:21:04;39.30;;;26.40;;
59271;SDS011;45043;51.068;7.026;2022-12-18T18:24:07;39.23;;;25.83;;
59271;SDS011;45043;51.068;7.026;2022-12-18T18:27:08;42.17;;;26.07;;
59271;SDS011;45043;51.068;7.026;2022-12-18T18:30:09;40.70;;;25.87;;
59271;SDS011;45043;51.068;7.026;2022-12-18T18:33:10;40.90;;;25.00;;
59271;SDS011;45043;51.068;7.026;2022-12-18T18:36:11;40.83;;;25.83;;
59271;SDS011;45043;51.068;7.026;2022-12-18T18:39:12;41.70;;;25.80;;
59271;SDS011;45043;51.068;7.026;2022-12-18T18:42:13;39.73;;;25.87;;
59271;SDS011;45043;51.068;7.026;2022-12-18T18:45:13;42.20;;;24.07;;
59271;SDS011;45043;51.068;7.026;2022-12-18T18:48:14;40.53;;;25.83;;
59271;SDS011;45043;51.068;7.026;2022-12-18T18:51:14;40.80;;;24.80;;
59271;SDS011;45043;51.068;7.026;2022-12-18T18:54:17;39.20;;;24.57;;
59271;SDS011;45043;51.068;7.026;2022-12-18T18:57:18;38.50;;;24.07;;
59271;SDS011;45043;51.068;7.026;2022-12-18T19:00:19;35.70;;;22.47;;
59271;SDS011;45043;51.068;7.026;2022-12-18T19:03:20;42.17;;;24.83;;
59271;SDS011;45043;51.068;7.026;2022-12-18T19:06:21;39.93;;;25.23;;
59271;SDS011;45043;51.068;7.026;2022-12-18T19:09:24;43.00;;;25.40;;
59271;SDS011;45043;51.068;7.026;2022-12-18T19:12:24;41.50;;;24.77;;
59271;SDS011;45043;51.068;7.026;2022-12-18T19:15:44;44.70;;;25.53;;
59271;SDS011;45043;51.068;7.026;2022-12-18T19:18:45;41.00;;;24.40;;
59271;SDS011;45043;51.068;7.026;2022-12-18T19:21:45;42.17;;;24.53;;
59271;SDS011;45043;51.068;7.026;2022-12-18T19:24:46;37.40;;;24.43;;
59271;SDS011;45043;51.068;7.026;2022-12-18T19:27:46;41.27;;;26.67;;